Minneapolis-St Paul International/Wold-Chamberlain Airport
KMSP : now visible

Airfield :











YOU CAN JOIN US ON...

 
LOGIN :

Register | Disclaimer

   EN    FR    IT 

 









Legend :    VFR   Marginal VFR   IFR   Intensive IFR   Very Intensive IFR
Visi :
Ceiling :
>= 8 km
>= 3000ft
5 to 8 km
1000 to 3000 ft
1500m to 5 km
500 to 1000 ft
800 to 1500m
200 to 500 ft
< 800m
< 200 ft
Symbols :   Thunderstorms  Fog  Heavy snow  Heavy precipitations  Wind > 20 kt






- Airport Elevation : 841 ft
- IATA code : MSP


KMSP - Minneapolis-St Paul International/Wold-Chamberlain

CURRENT METAR :
  • 220353Z 18010G19KT 10SM BKN230 M08/M12 A3002 RMK AO2 SLP183 T10781122 $

EXPIRED METARs :
  • 220253Z 18012G23KT 10SM BKN230 M08/M13 A3003 RMK AO2 SLP188 T10781128 58018 $

TAF KMSP
Valid from the 22 at 03:00 until the 23 at 06:00 UTC


220300Z 2203/2306 19012G20KT P6SM BKN250 WS020/21045KT
FM220700 19010KT P6SM VCSH SCT030 OVC060 WS020/22040KT
TEMPO 2209/2213 4SM -FZRASN BR BKN030
FM221300 19007KT 5SM BR OVC025
FM221600 20008KT 5SM BR OVC008



MET'MAP, your aeronautical weather chart ! - Copyright ORBIFLY December 2007 - Disclaimer

ORBIFLY MET'MAP TEAM :

Programming & Development : Alexandra Zaïnal
Concept & original design : Baudouin d'Aumeries
Assistance for programming : Marc-Olivier Méhu
Technical & hardware support : Manuel Goepfert

Contact : metmap@orbifly.com




SOURCES & CREDITS :

   NOAA       Earth
Advisory